Time;durP1;ratioP1;P1;durP2;ratioP2;P2;SDS_P1;SDS_P2;PMS_P1;PMS_P2;Temp;Humidity;BMP_temperature;BMP_pressure;BME280_temperature;BME280_humidity;BME280_pressure;Samples;Min_cycle;Max_cycle;Signal;HPM_P1;HPM_P2
2023/05/07 00:01:26;;;;;;;8.88;6.85;;;17.30;99.90;;;;;;6300980;22;20003;-92
2023/05/07 00:03:54;;;;;;;8.38;6.50;;;17.30;99.90;;;;;;6268610;22;20003;-93
2023/05/07 00:06:20;;;;;;;9.32;6.97;;;17.30;99.90;;;;;;6265650;22;20007;-93
2023/05/07 00:08:45;;;;;;;10.38;7.55;;;17.30;99.90;;;;;;6279948;22;19999;-91
2023/05/07 00:11:20;;;;;;;9.80;7.05;;;17.20;99.90;;;;;;6297218;22;20006;-93
2023/05/07 00:13:47;;;;;;;11.93;6.88;;;17.30;99.90;;;;;;6313677;22;20064;-94
2023/05/07 00:16:15;;;;;;;10.23;7.22;;;17.20;99.90;;;;;;6285610;22;20010;-94
2023/05/07 00:18:44;;;;;;;10.70;7.45;;;17.20;99.90;;;;;;6285650;22;20026;-94
2023/05/07 00:21:09;;;;;;;10.57;7.35;;;17.20;99.90;;;;;;6284951;22;20414;-94
2023/05/07 00:23:35;;;;;;;8.77;7.05;;;17.20;99.90;;;;;;6285320;22;20103;-94
2023/05/07 00:26:01;;;;;;;9.68;7.10;;;17.20;99.90;;;;;;6285137;22;20356;-94
2023/05/07 00:28:26;;;;;;;10.38;7.80;;;17.10;99.90;;;;;;6259600;22;19999;-93
2023/05/07 00:30:53;;;;;;;9.73;7.15;;;17.20;99.90;;;;;;6259059;22;20003;-95
2023/05/07 00:33:21;;;;;;;12.43;7.80;;;17.10;99.90;;;;;;6284101;22;20003;-92
2023/05/07 00:35:54;;;;;;;9.57;7.53;;;17.10;99.90;;;;;;6260261;22;20413;-93
2023/05/07 00:38:20;;;;;;;9.38;7.20;;;17.10;99.90;;;;;;6285837;22;20015;-92
2023/05/07 00:40:48;;;;;;;8.43;7.47;;;17.10;99.90;;;;;;6284179;22;20381;-92
2023/05/07 00:43:22;;;;;;;9.30;7.35;;;17.10;99.90;;;;;;6258828;22;20031;-93
2023/05/07 00:45:51;;;;;;;10.63;7.30;;;17.10;99.90;;;;;;6283673;22;20056;-93
2023/05/07 00:48:17;;;;;;;9.32;7.45;;;17.10;99.90;;;;;;6258653;22;20137;-94
2023/05/07 00:50:48;;;;;;;8.68;7.18;;;17.00;99.90;;;;;;6283282;22;20007;-93
2023/05/07 00:53:14;;;;;;;9.70;7.60;;;17.00;99.90;;;;;;6258536;22;20379;-92
2023/05/07 00:55:40;;;;;;;10.65;8.05;;;17.00;99.90;;;;;;6283493;22;19995;-92
2023/05/07 00:58:08;;;;;;;8.95;7.55;;;17.00;99.90;;;;;;6283548;22;19999;-94
2023/05/07 01:00:35;;;;;;;10.85;8.30;;;17.00;99.90;;;;;;6283188;22;20014;-94
2023/05/07 01:03:05;;;;;;;11.82;8.73;;;17.00;99.90;;;;;;6284351;22;20004;-94
2023/05/07 01:05:33;;;;;;;14.15;9.10;;;17.00;99.90;;;;;;6284128;22;20044;-94
2023/05/07 01:08:03;;;;;;;13.02;8.75;;;16.90;99.90;;;;;;6283934;22;20019;-93
2023/05/07 01:10:30;;;;;;;9.77;8.65;;;16.90;99.90;;;;;;6287877;22;20061;-94
2023/05/07 01:13:07;;;;;;;11.85;9.10;;;16.90;99.90;;;;;;6289233;22;20007;-93
2023/05/07 01:15:42;;;;;;;12.57;9.02;;;16.90;99.90;;;;;;6302156;22;20007;-93
2023/05/07 01:18:07;;;;;;;12.07;8.77;;;16.80;99.90;;;;;;6266145;22;20003;-92
2023/05/07 01:20:36;;;;;;;10.43;8.80;;;16.80;99.90;;;;;;6311148;22;20005;-93
2023/05/07 01:23:05;;;;;;;12.40;8.85;;;16.80;99.90;;;;;;6283670;22;20031;-93
2023/05/07 01:25:31;;;;;;;11.30;8.88;;;16.80;99.90;;;;;;6283565;22;20003;-93
2023/05/07 01:27:59;;;;;;;14.13;10.10;;;16.80;99.90;;;;;;6258460;22;20007;-93
2023/05/07 01:30:25;;;;;;;14.43;10.55;;;16.80;99.90;;;;;;6283914;22;20010;-94
2023/05/07 01:33:04;;;;;;;11.60;9.30;;;16.70;99.90;;;;;;6283643;22;20340;-93
2023/05/07 01:35:40;;;;;;;12.70;9.40;;;16.70;99.90;;;;;;6283273;22;20010;-94
2023/05/07 01:38:11;;;;;;;15.75;10.55;;;16.70;99.90;;;;;;6282934;22;20064;-92
2023/05/07 01:40:47;;;;;;;14.60;10.35;;;16.70;99.90;;;;;;6284238;22;19999;-93
2023/05/07 01:43:13;;;;;;;11.55;9.85;;;16.70;99.90;;;;;;6287120;22;20116;-93
2023/05/07 01:45:40;;;;;;;14.32;10.30;;;16.70;99.90;;;;;;6303361;22;19999;-92
2023/05/07 01:48:06;;;;;;;13.00;10.50;;;16.70;99.90;;;;;;6294459;22;19999;-92
2023/05/07 01:50:33;;;;;;;12.38;10.48;;;16.70;99.90;;;;;;6283856;22;19999;-91
2023/05/07 01:52:59;;;;;;;12.85;10.60;;;16.70;99.90;;;;;;6284917;22;20014;-92
2023/05/07 01:55:36;;;;;;;14.60;10.85;;;16.70;99.90;;;;;;6284922;22;20003;-93
2023/05/07 01:58:08;;;;;;;11.80;10.30;;;16.70;99.90;;;;;;6283633;22;20072;-93
2023/05/07 02:00:41;;;;;;;12.77;10.20;;;16.70;99.90;;;;;;6283441;22;20439;-92
2023/05/07 02:03:10;;;;;;;12.82;11.15;;;16.60;99.90;;;;;;6282930;22;20007;-94
2023/05/07 02:05:35;;;;;;;12.98;10.98;;;16.60;99.90;;;;;;6284796;22;20433;-93
2023/05/07 02:08:10;;;;;;;12.95;11.55;;;16.60;99.90;;;;;;6258585;22;20025;-92
2023/05/07 02:10:36;;;;;;;14.65;11.45;;;16.60;99.90;;;;;;6283685;22;20057;-93
2023/05/07 02:13:05;;;;;;;13.23;11.20;;;16.60;99.90;;;;;;6284211;22;20011;-94
2023/05/07 02:15:30;;;;;;;15.57;12.00;;;16.60;99.90;;;;;;6286770;22;20010;-93
2023/05/07 02:18:06;;;;;;;15.30;11.57;;;16.60;99.90;;;;;;6287957;22;20000;-92
2023/05/07 02:20:32;;;;;;;15.23;12.52;;;16.60;99.90;;;;;;6299558;22;20010;-91
2023/05/07 02:22:57;;;;;;;14.05;12.18;;;16.60;99.90;;;;;;6330633;22;19999;-94
2023/05/07 02:25:26;;;;;;;15.68;12.50;;;16.60;99.90;;;;;;6283906;22;20421;-93
2023/05/07 02:27:54;;;;;;;16.83;12.80;;;16.60;99.90;;;;;;6283625;22;20006;-93
2023/05/07 02:30:23;;;;;;;15.77;13.50;;;16.60;99.90;;;;;;6283919;22;20026;-94
2023/05/07 02:32:49;;;;;;;14.93;12.95;;;16.60;99.90;;;;;;6283889;22;20021;-93
2023/05/07 02:35:15;;;;;;;17.90;14.85;;;16.60;99.90;;;;;;6257953;22;20037;-92
2023/05/07 02:37:41;;;;;;;15.07;13.50;;;16.60;99.90;;;;;;6282686;22;20015;-93
2023/05/07 02:40:10;;;;;;;18.50;15.35;;;16.50;99.90;;;;;;6232669;22;20044;-92
2023/05/07 02:42:39;;;;;;;15.82;14.13;;;16.50;99.90;;;;;;6258150;22;20011;-93
2023/05/07 02:45:05;;;;;;;18.38;15.40;;;16.50;99.90;;;;;;6283537;22;19999;-92
2023/05/07 02:47:31;;;;;;;17.58;15.13;;;16.50;99.90;;;;;;6283114;22;20004;-93
2023/05/07 02:49:56;;;;;;;18.17;15.57;;;16.50;99.90;;;;;;6283366;22;20366;-93
2023/05/07 02:52:22;;;;;;;18.02;15.70;;;16.50;99.90;;;;;;6283139;22;20007;-92
2023/05/07 02:54:48;;;;;;;16.83;15.02;;;16.50;99.90;;;;;;6282997;22;20141;-93
2023/05/07 02:57:14;;;;;;;17.30;15.50;;;16.50;99.90;;;;;;6283330;22;20003;-93
2023/05/07 02:59:40;;;;;;;20.00;17.38;;;16.50;99.90;;;;;;6283144;22;20003;-93
2023/05/07 03:02:06;;;;;;;19.67;17.58;;;16.50;99.90;;;;;;6283456;22;20003;-92
2023/05/07 03:04:31;;;;;;;19.27;17.15;;;16.40;99.90;;;;;;6283840;22;20003;-92
2023/05/07 03:06:57;;;;;;;17.85;15.98;;;16.50;99.90;;;;;;6257820;22;20004;-94
2023/05/07 03:09:32;;;;;;;18.88;16.90;;;16.40;99.90;;;;;;6283909;22;20003;-94
2023/05/07 03:12:00;;;;;;;21.63;17.70;;;16.40;99.90;;;;;;6283288;22;20015;-93
2023/05/07 03:14:29;;;;;;;19.60;17.52;;;16.40;99.90;;;;;;6258414;22;20011;-93
2023/05/07 03:16:55;;;;;;;19.25;16.95;;;16.40;99.90;;;;;;6283361;22;19999;-93
2023/05/07 03:19:20;;;;;;;19.33;17.30;;;16.40;99.90;;;;;;6310525;22;20002;-92
2023/05/07 03:21:47;;;;;;;19.85;17.75;;;16.40;99.90;;;;;;6234327;22;19999;-92
2023/05/07 03:24:21;;;;;;;18.98;16.98;;;16.40;99.90;;;;;;6289242;22;20344;-94
2023/05/07 03:26:47;;;;;;;18.42;16.33;;;16.40;99.90;;;;;;6278522;22;19999;-90
2023/05/07 03:29:17;;;;;;;21.23;17.30;;;16.40;99.90;;;;;;6305833;22;20001;-91
2023/05/07 03:31:43;;;;;;;;;;;16.30;99.90;;;;;;6278930;22;20004;-93
2023/05/07 03:34:09;;;;;;;20.27;17.00;;;16.30;99.90;;;;;;6298167;22;19963;-92
2023/05/07 03:36:35;;;;;;;19.38;16.52;;;16.30;99.90;;;;;;6288763;22;20015;-94
2023/05/07 03:39:02;;;;;;;18.80;16.80;;;16.20;99.90;;;;;;6323815;22;19996;-92
2023/05/07 03:41:29;;;;;;;17.90;16.00;;;16.20;99.90;;;;;;6302262;22;20049;-94
2023/05/07 03:43:55;;;;;;;19.58;16.45;;;16.20;99.90;;;;;;6301578;22;20003;-93
2023/05/07 03:46:21;;;;;;;19.75;16.90;;;16.20;99.90;;;;;;6270763;22;20317;-94
2023/05/07 03:48:52;;;;;;;17.70;15.80;;;16.20;99.90;;;;;;6260354;22;20067;-93
2023/05/07 03:51:18;;;;;;;19.98;16.92;;;16.10;99.90;;;;;;6286657;22;20006;-93
2023/05/07 03:53:44;;;;;;;18.70;15.75;;;16.10;99.90;;;;;;6259569;22;20415;-93
2023/05/07 03:56:10;;;;;;;19.65;15.68;;;16.10;99.90;;;;;;6285975;22;20041;-92
2023/05/07 03:58:35;;;;;;;20.17;16.25;;;16.10;99.90;;;;;;6234173;22;20000;-92
2023/05/07 04:01:01;;;;;;;21.75;16.45;;;16.10;99.90;;;;;;6253922;22;20007;-94
2023/05/07 04:03:27;;;;;;;20.10;16.92;;;16.10;99.90;;;;;;6310856;22;20126;-91
2023/05/07 04:05:55;;;;;;;21.55;17.63;;;16.10;99.90;;;;;;6284196;22;20065;-93
2023/05/07 04:08:21;;;;;;;17.98;15.55;;;16.10;99.90;;;;;;6284158;22;20000;-92
2023/05/07 04:10:58;;;;;;;19.58;16.83;;;16.10;99.90;;;;;;6284283;22;20009;-93
2023/05/07 04:13:27;;;;;;;20.80;16.92;;;16.10;99.90;;;;;;6317708;22;20007;-92
2023/05/07 04:15:58;;;;;;;22.17;18.30;;;16.00;99.90;;;;;;6289358;22;20082;-92
2023/05/07 04:18:27;;;;;;;22.83;18.50;;;16.00;99.90;;;;;;6285051;22;20019;-92
2023/05/07 04:20:56;;;;;;;20.60;18.40;;;16.00;99.90;;;;;;6284130;22;20436;-94
2023/05/07 04:23:31;;;;;;;23.17;17.52;;;16.00;99.90;;;;;;6283883;22;20007;-93
2023/05/07 04:25:57;;;;;;;21.85;18.00;;;16.00;99.90;;;;;;6287589;22;19995;-94
2023/05/07 04:28:33;;;;;;;;;;;;;;;;;;;;;
2023/05/07 04:31:02;;;;;;;21.48;17.52;;;16.00;99.90;;;;;;6331309;22;20003;-93
2023/05/07 04:33:28;;;;;;;18.90;16.98;;;16.00;99.90;;;;;;6307701;22;20007;-91
2023/05/07 04:35:57;;;;;;;19.35;16.85;;;16.00;99.90;;;;;;6326660;22;20053;-93
2023/05/07 04:38:23;;;;;;;19.42;17.38;;;16.00;99.90;;;;;;6284546;22;20037;-93
2023/05/07 04:40:51;;;;;;;21.70;16.80;;;16.00;99.90;;;;;;6284708;22;20059;-93
2023/05/07 04:43:17;;;;;;;18.38;16.42;;;16.00;99.90;;;;;;6259464;22;20007;-92
2023/05/07 04:45:43;;;;;;;19.63;17.52;;;16.00;99.90;;;;;;6284298;22;20010;-92
2023/05/07 04:48:09;;;;;;;20.17;17.38;;;16.00;99.90;;;;;;6259388;22;20007;-93
2023/05/07 04:50:38;;;;;;;19.48;16.48;;;16.00;99.90;;;;;;6284510;22;20052;-93
2023/05/07 04:53:06;;;;;;;19.80;16.05;;;16.00;99.90;;;;;;6285484;22;20343;-94
2023/05/07 04:55:32;;;;;;;18.48;16.20;;;16.00;99.90;;;;;;6259019;22;19999;-91
2023/05/07 04:58:01;;;;;;;19.38;17.20;;;16.00;99.90;;;;;;6284420;22;20006;-93
2023/05/07 05:00:30;;;;;;;18.33;16.40;;;16.00;99.90;;;;;;6260365;22;20003;-95
2023/05/07 05:03:00;;;;;;;19.63;17.63;;;16.00;99.90;;;;;;6260496;22;20007;-94
2023/05/07 05:05:31;;;;;;;18.70;16.55;;;16.00;99.90;;;;;;6286130;22;20029;-95
2023/05/07 05:07:57;;;;;;;18.27;16.33;;;16.00;99.90;;;;;;6259703;22;20014;-94
2023/05/07 05:10:23;;;;;;;20.38;17.10;;;16.00;99.90;;;;;;6257545;22;20429;-93
2023/05/07 05:12:48;;;;;;;19.42;17.33;;;16.00;99.90;;;;;;6284766;22;20014;-91
2023/05/07 05:15:14;;;;;;;20.00;18.00;;;16.00;99.90;;;;;;6259405;22;19999;-95
2023/05/07 05:17:43;;;;;;;22.63;18.58;;;16.00;99.90;;;;;;6259853;22;20516;-94
2023/05/07 05:20:11;;;;;;;21.60;17.80;;;16.00;99.90;;;;;;6284576;22;20003;-93
2023/05/07 05:22:42;;;;;;;20.80;17.63;;;16.00;99.90;;;;;;6284820;22;20049;-93
2023/05/07 05:25:08;;;;;;;19.08;17.02;;;16.00;99.90;;;;;;6284390;22;20006;-93
2023/05/07 05:27:37;;;;;;;24.55;19.08;;;16.00;99.90;;;;;;6284738;22;20003;-93
2023/05/07 05:30:04;;;;;;;20.52;18.33;;;16.00;99.90;;;;;;6284085;22;19995;-93
2023/05/07 05:32:30;;;;;;;20.92;17.55;;;16.00;99.90;;;;;;6284523;22;20007;-94
2023/05/07 05:34:58;;;;;;;20.92;18.65;;;16.00;99.90;;;;;;6284822;22;20018;-95
2023/05/07 05:37:44;;;;;;;21.38;17.73;;;16.00;99.90;;;;;;6316155;22;20445;-93
2023/05/07 05:40:12;;;;;;;20.35;17.92;;;16.00;99.90;;;;;;6255147;22;19995;-92
2023/05/07 05:42:40;;;;;;;20.77;17.92;;;16.00;99.90;;;;;;6291889;22;20007;-94
2023/05/07 05:45:07;;;;;;;19.42;17.35;;;16.00;99.90;;;;;;6258624;22;20082;-90
2023/05/07 05:47:32;;;;;;;19.33;17.33;;;16.00;99.90;;;;;;6284200;22;19999;-94
2023/05/07 05:50:00;;;;;;;19.73;17.73;;;16.00;99.90;;;;;;6259177;22;20000;-93
2023/05/07 05:52:26;;;;;;;21.02;18.15;;;16.00;99.90;;;;;;6258893;22;20437;-93
2023/05/07 05:54:57;;;;;;;23.80;19.23;;;16.00;99.90;;;;;;6284052;22;20091;-92
2023/05/07 05:57:22;;;;;;;;;;;16.00;99.90;;;;;;6259489;22;20011;-93
2023/05/07 05:59:55;;;;;;;19.65;17.15;;;16.00;99.90;;;;;;6283741;22;19934;-94
2023/05/07 06:02:21;;;;;;;19.35;17.35;;;16.00;99.90;;;;;;6285714;22;20067;-92
2023/05/07 06:04:50;;;;;;;20.02;17.92;;;16.00;99.90;;;;;;6284345;22;19999;-93
2023/05/07 06:07:16;;;;;;;20.40;18.23;;;16.00;99.90;;;;;;6284610;22;20034;-92
2023/05/07 06:09:41;;;;;;;18.95;16.95;;;16.00;99.90;;;;;;6311476;22;19999;-93
2023/05/07 06:12:07;;;;;;;20.08;17.35;;;16.00;99.90;;;;;;6283916;22;20011;-93
2023/05/07 06:14:36;;;;;;;21.15;18.52;;;16.10;99.90;;;;;;6284357;22;20060;-93
2023/05/07 06:17:05;;;;;;;19.70;17.55;;;16.10;99.90;;;;;;6283465;22;19999;-94
2023/05/07 06:19:30;;;;;;;21.02;18.70;;;16.00;99.90;;;;;;6310902;22;19995;-94
2023/05/07 06:21:56;;;;;;;21.15;18.83;;;16.10;99.90;;;;;;6284082;22;20000;-95
2023/05/07 06:24:25;;;;;;;19.58;17.48;;;16.10;99.90;;;;;;6285917;22;19999;-96
2023/05/07 06:26:51;;;;;;;20.17;18.10;;;16.10;99.90;;;;;;6285180;22;19999;-93
2023/05/07 06:29:19;;;;;;;19.48;17.58;;;16.10;99.90;;;;;;6262304;22;20010;-94
2023/05/07 06:31:48;;;;;;;20.00;17.83;;;16.20;99.90;;;;;;6287376;22;20003;-94
2023/05/07 06:34:16;;;;;;;20.17;17.90;;;16.20;99.90;;;;;;6287268;22;20435;-93
2023/05/07 06:36:42;;;;;;;19.75;17.02;;;16.20;99.90;;;;;;6286414;22;20015;-91
2023/05/07 06:39:10;;;;;;;21.13;17.88;;;16.20;99.90;;;;;;6260542;22;20082;-94
2023/05/07 06:41:35;;;;;;;20.60;18.05;;;16.20;99.90;;;;;;6290099;22;20006;-94
2023/05/07 06:44:04;;;;;;;21.83;18.48;;;16.20;99.90;;;;;;6262490;22;20011;-93
2023/05/07 06:46:30;;;;;;;20.13;18.05;;;16.20;99.90;;;;;;6271403;22;20003;-92
2023/05/07 06:49:06;;;;;;;19.98;17.83;;;16.30;99.90;;;;;;6290906;22;20037;-92
2023/05/07 06:51:31;;;;;;;19.85;17.40;;;16.30;99.90;;;;;;6286161;22;19999;-93
2023/05/07 06:54:00;;;;;;;20.33;18.23;;;16.30;99.90;;;;;;6283761;22;20015;-93
2023/05/07 06:56:27;;;;;;;19.90;17.73;;;16.30;99.90;;;;;;6258668;22;20019;-93
2023/05/07 06:58:53;;;;;;;22.50;18.08;;;16.30;99.90;;;;;;6284560;22;20106;-93
2023/05/07 07:01:21;;;;;;;23.02;20.77;;;16.40;99.90;;;;;;6284350;22;20002;-93
2023/05/07 07:03:51;;;;;;;21.63;18.60;;;16.40;99.90;;;;;;6258451;22;20003;-91
2023/05/07 07:06:16;;;;;;;22.80;20.52;;;16.40;99.90;;;;;;6284358;22;19999;-95
2023/05/07 07:08:42;;;;;;;21.55;19.40;;;16.40;99.90;;;;;;6285145;22;20003;-93
2023/05/07 07:11:09;;;;;;;22.42;20.02;;;16.40;99.90;;;;;;6304354;22;20026;-93
2023/05/07 07:13:39;;;;;;;23.95;21.40;;;16.40;99.90;;;;;;6308847;22;19995;-93
2023/05/07 07:16:12;;;;;;;21.92;19.63;;;16.50;99.90;;;;;;6306451;22;20321;-92
2023/05/07 07:18:41;;;;;;;23.75;20.98;;;16.40;99.90;;;;;;6303900;22;20004;-93
2023/05/07 07:21:07;;;;;;;25.70;22.73;;;16.50;99.90;;;;;;6303493;22;20023;-92
2023/05/07 07:23:33;;;;;;;26.33;23.63;;;16.50;99.90;;;;;;6300241;22;20000;-93
2023/05/07 07:26:01;;;;;;;24.75;22.20;;;16.50;99.90;;;;;;6267710;22;20014;-94
2023/05/07 07:28:27;;;;;;;25.25;22.63;;;16.60;99.90;;;;;;6284134;22;19999;-94
2023/05/07 07:30:53;;;;;;;23.55;21.08;;;16.60;99.90;;;;;;6283882;22;20034;-92
2023/05/07 07:33:21;;;;;;;24.80;22.05;;;16.60;99.90;;;;;;6284442;22;19999;-93
2023/05/07 07:35:51;;;;;;;25.27;22.58;;;16.60;99.90;;;;;;6283672;22;20048;-93
2023/05/07 07:38:19;;;;;;;24.63;22.00;;;16.60;99.90;;;;;;6284783;22;20091;-93
2023/05/07 07:40:53;;;;;;;26.52;21.60;;;16.60;99.90;;;;;;6285297;22;20022;-92
2023/05/07 07:43:19;;;;;;;24.58;21.80;;;16.60;99.90;;;;;;6286320;22;20016;-93
2023/05/07 07:45:45;;;;;;;25.77;22.35;;;16.60;99.90;;;;;;6313743;22;20030;-93
2023/05/07 07:48:21;;;;;;;;;;;;;;;;;;;;;
2023/05/07 07:50:53;;;;;;;24.95;21.70;;;16.60;99.90;;;;;;6313853;22;20041;-93
2023/05/07 07:53:19;;;;;;;23.05;20.70;;;16.60;99.90;;;;;;6291406;22;20003;-91
2023/05/07 07:55:45;;;;;;;25.60;22.17;;;16.60;99.90;;;;;;6287590;22;20061;-93
2023/05/07 07:58:22;;;;;;;25.30;21.23;;;16.60;99.90;;;;;;6282022;22;20055;-92
2023/05/07 08:00:48;;;;;;;26.52;22.70;;;16.60;99.90;;;;;;6283180;22;19999;-92
2023/05/07 08:03:16;;;;;;;27.20;21.83;;;16.60;99.90;;;;;;6282062;22;20058;-91
2023/05/07 08:05:42;;;;;;;28.75;23.13;;;16.60;99.90;;;;;;6283932;22;19999;-94
2023/05/07 08:08:09;;;;;;;27.15;24.20;;;16.60;99.90;;;;;;6258043;22;20057;-93
2023/05/07 08:10:37;;;;;;;32.42;24.63;;;16.60;99.90;;;;;;6309950;22;19995;-93
2023/05/07 08:13:04;;;;;;;29.25;24.85;;;16.60;99.90;;;;;;6284244;22;20003;-90
2023/05/07 08:15:31;;;;;;;27.00;24.25;;;16.70;99.90;;;;;;6284377;22;20021;-93
2023/05/07 08:18:00;;;;;;;28.20;23.10;;;16.70;99.90;;;;;;6285301;22;20000;-94
2023/05/07 08:20:26;;;;;;;28.63;23.95;;;16.70;99.90;;;;;;6284837;22;20473;-94
2023/05/07 08:22:51;;;;;;;27.50;22.13;;;16.70;99.90;;;;;;6312193;22;20000;-91
2023/05/07 08:25:17;;;;;;;27.00;23.67;;;16.80;99.90;;;;;;6259241;22;20050;-94
2023/05/07 08:27:44;;;;;;;25.02;22.17;;;16.80;99.90;;;;;;6286178;22;20011;-94
2023/05/07 08:30:11;;;;;;;24.67;22.15;;;16.80;99.90;;;;;;6261356;22;19999;-93
2023/05/07 08:32:36;;;;;;;25.52;22.65;;;16.90;99.90;;;;;;6285847;22;20007;-95
2023/05/07 08:35:02;;;;;;;27.05;23.15;;;16.90;99.90;;;;;;6286080;22;20077;-94
2023/05/07 08:37:28;;;;;;;30.38;22.63;;;17.00;99.90;;;;;;6260258;22;20019;-92
2023/05/07 08:39:57;;;;;;;26.58;21.13;;;17.00;99.90;;;;;;6284762;22;20015;-92
2023/05/07 08:42:27;;;;;;;25.85;21.85;;;17.00;99.90;;;;;;6234613;22;20064;-94
2023/05/07 08:44:59;;;;;;;27.80;22.63;;;17.10;99.90;;;;;;6312609;22;20003;-94
2023/05/07 08:47:33;;;;;;;27.75;22.55;;;17.10;99.90;;;;;;6286404;22;19995;-95
2023/05/07 08:50:02;;;;;;;27.00;22.95;;;17.10;99.90;;;;;;6284484;22;19999;-94
2023/05/07 08:52:28;;;;;;;25.02;21.23;;;17.20;99.90;;;;;;6261103;22;20018;-93
2023/05/07 08:54:56;;;;;;;25.42;21.88;;;17.20;99.90;;;;;;6284921;22;20333;-93
2023/05/07 08:57:25;;;;;;;25.45;22.52;;;17.20;99.90;;;;;;6288061;22;20006;-93
2023/05/07 08:59:54;;;;;;;24.15;20.65;;;17.20;99.90;;;;;;6299168;22;20005;-93
2023/05/07 09:02:24;;;;;;;30.15;22.88;;;17.20;99.90;;;;;;6279495;22;19987;-94
2023/05/07 09:04:50;;;;;;;24.42;20.98;;;17.30;99.90;;;;;;6262768;22;19999;-93
2023/05/07 09:07:16;;;;;;;22.00;19.45;;;17.30;99.90;;;;;;6262703;22;20033;-93
2023/05/07 09:09:44;;;;;;;23.73;20.73;;;17.40;99.90;;;;;;6316532;22;20074;-93
2023/05/07 09:12:10;;;;;;;26.60;22.05;;;17.40;99.90;;;;;;6262379;22;20007;-95
2023/05/07 09:14:39;;;;;;;26.15;22.10;;;17.50;99.90;;;;;;6286677;22;20355;-94
2023/05/07 09:17:05;;;;;;;26.55;23.67;;;17.50;99.90;;;;;;6285509;22;20010;-94
2023/05/07 09:19:31;;;;;;;26.48;22.70;;;17.60;99.90;;;;;;6313916;22;20003;-94
2023/05/07 09:22:07;;;;;;;25.02;22.13;;;17.60;99.90;;;;;;6283803;22;19995;-91
2023/05/07 09:24:37;;;;;;;23.02;20.08;;;17.70;99.90;;;;;;6284840;22;20057;-93
2023/05/07 09:27:04;;;;;;;25.23;20.65;;;17.70;99.90;;;;;;6237830;22;20005;-92
2023/05/07 09:29:34;;;;;;;24.98;21.05;;;17.80;99.90;;;;;;6259136;22;20011;-94
2023/05/07 09:32:01;;;;;;;23.40;20.50;;;17.80;99.90;;;;;;6262660;22;20003;-94
2023/05/07 09:34:27;;;;;;;23.42;20.92;;;17.90;99.90;;;;;;6285147;22;20090;-92
2023/05/07 09:36:54;;;;;;;22.27;19.88;;;18.00;99.90;;;;;;6233268;22;20385;-92
2023/05/07 09:39:19;;;;;;;23.90;20.67;;;18.00;99.90;;;;;;6285478;22;20508;-93
2023/05/07 09:41:47;;;;;;;23.63;19.50;;;18.10;99.90;;;;;;6286592;22;20007;-94
2023/05/07 09:44:16;;;;;;;24.08;20.55;;;18.10;99.90;;;;;;6260860;22;20067;-92
2023/05/07 09:46:46;;;;;;;22.50;20.08;;;18.20;99.90;;;;;;6285320;22;20003;-93
2023/05/07 09:49:21;;;;;;;24.70;20.10;;;18.20;99.90;;;;;;6286153;22;20000;-93
2023/05/07 09:51:55;;;;;;;24.17;20.52;;;18.30;99.90;;;;;;6285441;22;19999;-92
2023/05/07 09:54:20;;;;;;;24.27;20.10;;;18.30;99.90;;;;;;6284521;22;20086;-93
2023/05/07 09:56:48;;;;;;;21.33;19.17;;;18.30;99.90;;;;;;6259757;22;20388;-90
2023/05/07 09:59:15;;;;;;;23.38;19.88;;;18.40;99.90;;;;;;6257927;22;20061;-93
2023/05/07 10:01:43;;;;;;;23.02;20.58;;;18.40;99.90;;;;;;6283164;22;20002;-90
2023/05/07 10:04:10;;;;;;;20.58;18.35;;;18.50;99.90;;;;;;6281503;22;20008;-86
2023/05/07 10:06:37;;;;;;;20.27;18.20;;;18.60;99.90;;;;;;6283785;22;20359;-87
2023/05/07 10:09:05;;;;;;;19.92;17.08;;;18.60;99.90;;;;;;6260691;22;20406;-86
2023/05/07 10:11:35;;;;;;;20.88;18.63;;;18.70;99.90;;;;;;6256017;22;20021;-87
2023/05/07 10:14:03;;;;;;;20.08;17.73;;;18.70;99.90;;;;;;6280267;22;20334;-86
2023/05/07 10:16:36;;;;;;;20.05;17.75;;;18.80;99.90;;;;;;6255530;22;20010;-90
2023/05/07 10:19:06;;;;;;;21.05;18.67;;;18.80;99.90;;;;;;6281267;22;20017;-86
2023/05/07 10:21:38;;;;;;;21.27;18.95;;;18.90;99.90;;;;;;6280947;22;20000;-86
2023/05/07 10:24:25;;;;;;;20.30;17.88;;;19.00;99.90;;;;;;6281323;22;20003;-86
2023/05/07 10:26:52;;;;;;;17.92;15.93;;;19.10;99.90;;;;;;6280249;22;20078;-87
2023/05/07 10:29:27;;;;;;;19.00;17.10;;;19.10;99.90;;;;;;6255954;22;20000;-86
2023/05/07 10:32:17;;;;;;;20.98;16.40;;;19.20;99.90;;;;;;6282623;22;20038;-85
2023/05/07 10:34:47;;;;;;;18.58;16.42;;;19.30;99.90;;;;;;6281483;22;20009;-88
2023/05/07 10:37:13;;;;;;;18.80;16.65;;;19.40;99.90;;;;;;6281223;22;20082;-87
2023/05/07 10:39:40;;;;;;;16.63;14.93;;;19.50;99.90;;;;;;6280727;22;20007;-86
2023/05/07 10:42:11;;;;;;;21.35;17.45;;;19.50;99.90;;;;;;6281223;22;20042;-88
2023/05/07 10:44:37;;;;;;;;;;;19.60;99.90;;;;;;6282985;22;19995;-88
2023/05/07 10:47:09;;;;;;;18.85;14.98;;;19.70;99.90;;;;;;6284189;22;19918;-88
2023/05/07 10:49:41;;;;;;;16.13;14.45;;;19.70;99.90;;;;;;6283872;22;20009;-87
2023/05/07 10:52:21;;;;;;;17.13;15.27;;;19.70;99.90;;;;;;6264229;22;20022;-87
2023/05/07 10:54:47;;;;;;;18.92;16.83;;;19.80;99.90;;;;;;6286526;22;20003;-87
2023/05/07 10:57:31;;;;;;;17.75;15.73;;;19.80;99.90;;;;;;6290315;22;20021;-88
2023/05/07 10:59:57;;;;;;;18.35;15.27;;;19.90;99.90;;;;;;6288753;22;19999;-86
2023/05/07 11:02:43;;;;;;;17.75;15.93;;;19.90;99.90;;;;;;6285615;22;20010;-87
2023/05/07 11:05:24;;;;;;;17.50;14.50;;;20.00;99.90;;;;;;6315044;22;20007;-88
2023/05/07 11:07:57;;;;;;;15.90;13.85;;;20.10;99.90;;;;;;6317259;22;20000;-88
2023/05/07 11:10:46;;;;;;;16.90;14.20;;;20.10;99.90;;;;;;6315825;22;20004;-88
2023/05/07 11:13:12;;;;;;;16.33;14.60;;;20.10;99.90;;;;;;6285207;22;20060;-87
2023/05/07 11:15:41;;;;;;;16.50;14.80;;;20.20;99.90;;;;;;6258706;22;20011;-87
2023/05/07 11:18:07;;;;;;;17.88;15.98;;;20.20;99.90;;;;;;6283568;22;20057;-87
2023/05/07 11:20:53;;;;;;;19.65;15.68;;;20.20;99.90;;;;;;6282416;22;20293;-86
2023/05/07 11:23:34;;;;;;;16.65;14.82;;;20.30;99.90;;;;;;6281044;22;20026;-86
2023/05/07 11:26:07;;;;;;;18.17;14.80;;;20.30;99.90;;;;;;6282810;22;20021;-85
2023/05/07 11:28:43;;;;;;;15.32;13.73;;;20.40;99.90;;;;;;6256283;22;20329;-84
2023/05/07 11:31:10;;;;;;;18.08;14.40;;;20.40;99.90;;;;;;6282193;22;19995;-86
2023/05/07 11:33:37;;;;;;;18.23;13.10;;;20.50;99.90;;;;;;6254878;22;20066;-86
2023/05/07 11:36:04;;;;;;;16.45;14.68;;;20.60;99.90;;;;;;6280062;22;20033;-85
2023/05/07 11:38:30;;;;;;;16.58;14.60;;;20.60;99.90;;;;;;6307291;22;20022;-86
2023/05/07 11:41:00;;;;;;;16.90;14.07;;;20.60;99.90;;;;;;6307377;22;20000;-85
2023/05/07 11:43:29;;;;;;;16.20;14.50;;;20.60;99.90;;;;;;6307889;22;19999;-84
2023/05/07 11:46:04;;;;;;;16.02;13.90;;;20.60;99.90;;;;;;6281650;22;19999;-84
2023/05/07 11:48:30;;;;;;;19.13;13.90;;;20.70;99.90;;;;;;6282275;22;20013;-85
2023/05/07 11:50:58;;;;;;;17.38;14.77;;;20.70;99.90;;;;;;6282409;22;20034;-86
2023/05/07 11:53:35;;;;;;;15.43;13.80;;;20.70;99.90;;;;;;6310422;22;20017;-89
2023/05/07 11:56:05;;;;;;;16.15;14.45;;;20.70;99.90;;;;;;6259611;22;20019;-89
2023/05/07 11:58:31;;;;;;;17.08;14.57;;;20.80;99.90;;;;;;6283688;22;20365;-90
2023/05/07 12:01:00;;;;;;;15.02;13.45;;;20.80;99.90;;;;;;6310761;22;20002;-89
2023/05/07 12:03:25;;;;;;;14.07;12.45;;;20.80;99.90;;;;;;6283579;22;20017;-89
2023/05/07 12:05:51;;;;;;;16.00;14.30;;;20.80;99.90;;;;;;6310911;22;20027;-89
2023/05/07 12:08:18;;;;;;;12.85;11.50;;;20.90;99.90;;;;;;6259568;22;20004;-89
2023/05/07 12:10:45;;;;;;;15.63;14.02;;;20.90;99.90;;;;;;6258397;22;20007;-91
2023/05/07 12:13:21;;;;;;;17.90;13.15;;;20.90;99.90;;;;;;6283642;22;20003;-91
2023/05/07 12:15:55;;;;;;;15.07;13.00;;;20.90;99.90;;;;;;6234958;22;20003;-90
2023/05/07 12:18:22;;;;;;;16.98;13.70;;;20.90;99.90;;;;;;6284354;22;20031;-92
2023/05/07 12:20:51;;;;;;;17.35;13.85;;;20.90;99.90;;;;;;6286563;22;20026;-91
2023/05/07 12:23:22;;;;;;;14.95;13.43;;;20.90;99.90;;;;;;6288541;22;20033;-93
2023/05/07 12:25:48;;;;;;;15.85;13.60;;;20.90;99.90;;;;;;6284787;22;20003;-92
2023/05/07 12:28:19;;;;;;;15.45;13.77;;;20.90;99.90;;;;;;6284315;22;20014;-92
2023/05/07 12:30:47;;;;;;;15.77;14.00;;;20.90;99.90;;;;;;6284504;22;20490;-93
2023/05/07 12:33:17;;;;;;;15.75;14.15;;;20.90;99.90;;;;;;6284392;22;20086;-93
2023/05/07 12:35:48;;;;;;;15.93;13.95;;;21.00;99.90;;;;;;6284575;22;20007;-93
2023/05/07 12:38:25;;;;;;;14.80;13.27;;;20.90;99.90;;;;;;6284527;22;20015;-94
2023/05/07 12:40:54;;;;;;;16.42;13.85;;;20.90;99.90;;;;;;6291487;22;20003;-92